createdAt,value
2022-12-07T00:02:38.741Z,16.8
2022-12-07T00:07:33.323Z,16.8
2022-12-07T00:12:28.342Z,16.8
2022-12-07T00:17:23.098Z,16.8
2022-12-07T00:22:17.820Z,16.7
2022-12-07T00:27:12.555Z,16.7
2022-12-07T00:32:07.324Z,16.7
2022-12-07T00:37:02.053Z,16.7
2022-12-07T00:41:56.545Z,16.7
2022-12-07T00:46:51.280Z,16.7
2022-12-07T00:51:46.037Z,16.6
2022-12-07T00:56:40.813Z,16.6
2022-12-07T01:01:35.454Z,16.6
2022-12-07T01:06:29.947Z,16.5
2022-12-07T01:11:24.782Z,16.5
2022-12-07T01:16:19.597Z,16.5
2022-12-07T01:21:14.109Z,16.5
2022-12-07T01:26:08.823Z,16.5
2022-12-07T01:31:03.529Z,16.5
2022-12-07T01:35:57.982Z,16.4
2022-12-07T01:40:52.776Z,16.5
2022-12-07T01:45:47.502Z,16.4
2022-12-07T01:50:41.938Z,16.4
2022-12-07T01:55:36.804Z,16.4
2022-12-07T02:00:30.603Z,16.3
2022-12-07T02:05:25.496Z,16.3
2022-12-07T02:10:20.411Z,16.3
2022-12-07T02:15:15.040Z,16.3
2022-12-07T02:20:09.713Z,16.3
2022-12-07T02:25:04.565Z,16.3
2022-12-07T02:29:59.414Z,16.3
2022-12-07T02:34:53.959Z,16.3
2022-12-07T02:39:48.814Z,16.2
2022-12-07T02:44:43.261Z,16.1
2022-12-07T02:49:37.936Z,16.2
2022-12-07T02:54:32.855Z,16.2
2022-12-07T02:59:27.493Z,16.1
2022-12-07T03:04:21.906Z,16.1
2022-12-07T03:09:16.707Z,16.1
2022-12-07T03:14:11.022Z,16.2
2022-12-07T03:19:05.606Z,16.1
2022-12-07T03:24:00.341Z,16.1
2022-12-07T03:28:54.939Z,16.1
2022-12-07T03:33:49.579Z,16.1
2022-12-07T03:38:44.319Z,16.1
2022-12-07T03:43:39.091Z,16.1
2022-12-07T03:48:33.943Z,16
2022-12-07T03:53:28.610Z,16
2022-12-07T03:58:23.467Z,16
2022-12-07T04:03:18.303Z,16
2022-12-07T04:08:12.962Z,15.9
2022-12-07T04:18:48.870Z,16
2022-12-07T04:23:43.159Z,16
2022-12-07T04:28:37.077Z,15.9
2022-12-07T04:33:31.094Z,15.9
2022-12-07T04:38:25.786Z,15.9
2022-12-07T04:43:20.372Z,15.8
2022-12-07T04:48:14.888Z,15.9
2022-12-07T04:53:09.399Z,15.8
2022-12-07T04:58:03.840Z,15.8
2022-12-07T05:02:57.869Z,15.8
2022-12-07T05:07:52.426Z,16
2022-12-07T05:12:47.304Z,16.1
2022-12-07T05:17:42.441Z,16.5
2022-12-07T05:22:37.673Z,16.9
2022-12-07T05:27:32.639Z,17.3
2022-12-07T05:32:27.817Z,17.8
2022-12-07T05:37:23.029Z,18.5
2022-12-07T05:42:17.669Z,19
2022-12-07T05:47:13.011Z,19.4
2022-12-07T05:52:08.447Z,19.8
2022-12-07T05:57:03.610Z,20.5
2022-12-07T06:01:58.887Z,20.8
2022-12-07T06:06:53.675Z,21
2022-12-07T06:11:47.777Z,21.2
2022-12-07T06:16:42.813Z,21.3
2022-12-07T06:21:37.057Z,21
2022-12-07T06:26:31.883Z,20.8
2022-12-07T06:31:27.440Z,20.6
2022-12-07T06:36:26.989Z,20.7
2022-12-07T06:41:16.591Z,20.7
2022-12-07T06:46:10.757Z,20.3
2022-12-07T06:51:04.860Z,20.1
2022-12-07T06:55:58.764Z,19.9
2022-12-07T07:00:53.538Z,19.6
2022-12-07T07:05:47.815Z,19.4
2022-12-07T07:10:42.451Z,19.3
2022-12-07T07:15:36.764Z,18.6
2022-12-07T07:20:28.599Z,15.9
2022-12-07T07:25:21.761Z,14.5
2022-12-07T07:30:16.118Z,14.2
2022-12-07T07:35:12.964Z,16.2
2022-12-07T07:40:08.426Z,16.9
2022-12-07T07:45:03.398Z,17.1
2022-12-07T07:49:58.315Z,17.2
2022-12-07T07:54:52.215Z,16.6
2022-12-07T07:59:46.352Z,16.8
2022-12-07T08:04:41.091Z,17.1
2022-12-07T08:09:35.598Z,17.1
2022-12-07T08:14:30.148Z,17.2
2022-12-07T08:19:24.866Z,17.2
2022-12-07T08:24:19.084Z,17.1
2022-12-07T08:29:13.891Z,17
2022-12-07T08:34:08.693Z,16.9
2022-12-07T08:39:31.581Z,16.9
2022-12-07T08:43:56.902Z,16.9
2022-12-07T08:48:51.703Z,17.3
2022-12-07T08:53:46.368Z,17.3
2022-12-07T08:58:41.048Z,17.1
2022-12-07T09:03:35.693Z,17
2022-12-07T09:08:30.161Z,16.9
2022-12-07T09:13:25.256Z,16.9
2022-12-07T09:18:19.222Z,16.8
2022-12-07T09:23:13.979Z,16.8
2022-12-07T09:28:08.590Z,16.7
2022-12-07T09:33:03.271Z,16.6
2022-12-07T09:37:58.028Z,16.7
2022-12-07T09:42:52.715Z,16.6
2022-12-07T09:47:47.385Z,16.5
2022-12-07T09:52:42.267Z,16.4
2022-12-07T09:57:36.301Z,16.5
2022-12-07T10:02:30.934Z,16.4
2022-12-07T10:07:25.758Z,16.4
2022-12-07T10:12:20.440Z,16.4
2022-12-07T10:17:14.220Z,16.3
2022-12-07T10:22:08.924Z,16.4
2022-12-07T10:27:03.793Z,16.6
2022-12-07T10:31:59.196Z,16.9
2022-12-07T10:36:53.986Z,17.2
2022-12-07T10:41:49.225Z,17.6
2022-12-07T10:46:43.989Z,17.9
2022-12-07T10:51:39.667Z,18.5
2022-12-07T10:56:34.165Z,19
2022-12-07T11:01:29.279Z,19.5
2022-12-07T11:06:24.207Z,19.8
2022-12-07T11:11:19.332Z,20
2022-12-07T11:16:14.171Z,20.2
2022-12-07T11:21:08.247Z,20.2
2022-12-07T11:26:02.812Z,20.2
2022-12-07T11:30:57.642Z,20.2
2022-12-07T11:35:52.400Z,20.2
2022-12-07T11:40:47.402Z,20.2
2022-12-07T11:45:42.168Z,20.1
2022-12-07T11:50:36.829Z,20
2022-12-07T11:55:31.551Z,19.9
2022-12-07T12:00:26.068Z,19.9
2022-12-07T12:05:19.960Z,19.8
2022-12-07T12:10:14.545Z,19.6
2022-12-07T12:15:08.361Z,19.5
2022-12-07T12:20:03.318Z,19.4
2022-12-07T12:24:58.253Z,19.2
2022-12-07T12:29:52.934Z,19.2
2022-12-07T12:34:50.587Z,19.1
2022-12-07T12:39:42.158Z,19.1
2022-12-07T12:44:36.887Z,19
2022-12-07T12:49:31.376Z,18.8
2022-12-07T12:54:26.063Z,18.8
2022-12-07T12:59:20.602Z,18.7
2022-12-07T13:04:15.292Z,18.5
2022-12-07T13:09:09.942Z,18.5
2022-12-07T13:14:04.373Z,18.3
2022-12-07T13:18:59.073Z,18.3
2022-12-07T13:23:53.573Z,18.2
2022-12-07T13:28:47.482Z,18.1
2022-12-07T13:33:42.054Z,17.9
2022-12-07T13:38:36.496Z,17.8
2022-12-07T13:43:31.138Z,17.6
2022-12-07T13:48:24.603Z,17.1
2022-12-07T13:53:18.865Z,16.7
2022-12-07T13:58:13.701Z,16.6
2022-12-07T14:03:09.046Z,17.1
2022-12-07T14:08:04.793Z,17.7
2022-12-07T14:13:00.199Z,18.3
2022-12-07T14:17:54.684Z,18.7
2022-12-07T14:22:50.357Z,19.2
2022-12-07T14:27:47.612Z,19.6
2022-12-07T14:32:41.488Z,19.9
2022-12-07T14:37:36.258Z,20.3
2022-12-07T14:42:31.102Z,20.4
2022-12-07T14:57:14.696Z,20.1
2022-12-07T15:02:09.484Z,20.2
2022-12-07T15:07:03.832Z,20.2
2022-12-07T15:11:58.223Z,20.1
2022-12-07T15:17:08.287Z,20
2022-12-07T15:21:47.716Z,19.9
2022-12-07T15:26:42.300Z,19.8
2022-12-07T15:31:54.914Z,19.8
2022-12-07T15:36:31.553Z,19.6
2022-12-07T15:41:25.990Z,19.5
2022-12-07T15:46:19.809Z,19.2
2022-12-07T15:51:14.282Z,19
2022-12-07T15:56:08.919Z,18.9
2022-12-07T16:01:04.055Z,19.2
2022-12-07T16:05:59.355Z,19.4
2022-12-07T16:10:54.253Z,19.6
2022-12-07T16:15:49.286Z,19.7
2022-12-07T16:20:44.503Z,20
2022-12-07T16:25:39.618Z,20.1
2022-12-07T16:30:34.233Z,20.2
2022-12-07T16:35:29.021Z,20.2
2022-12-07T16:40:23.966Z,20.1
2022-12-07T16:45:20.911Z,20.1
2022-12-07T16:50:13.754Z,20
2022-12-07T16:55:08.841Z,19.9
2022-12-07T17:00:03.369Z,19.5
2022-12-07T17:04:57.854Z,19.3
2022-12-07T17:09:52.310Z,19.2
2022-12-07T17:14:46.939Z,19.2
2022-12-07T17:19:41.625Z,19
2022-12-07T17:24:36.608Z,18.8
2022-12-07T17:29:31.258Z,18.8
2022-12-07T17:34:26.130Z,18.6
2022-12-07T17:39:20.846Z,18.5
2022-12-07T17:44:15.539Z,18.5
2022-12-07T17:49:10.323Z,18.5
2022-12-07T17:54:05.088Z,18.4
2022-12-07T17:58:59.930Z,18.3
2022-12-07T18:03:54.102Z,18.2
2022-12-07T18:08:48.291Z,18.4
2022-12-07T18:13:43.277Z,18.6
2022-12-07T18:18:38.285Z,18.9
2022-12-07T18:23:33.223Z,19.2
2022-12-07T18:28:27.998Z,19.6
2022-12-07T18:33:23.153Z,19.8
2022-12-07T18:38:18.053Z,20.3
2022-12-07T18:43:13.170Z,20.6
2022-12-07T18:48:08.204Z,20.8
2022-12-07T18:53:02.937Z,21
2022-12-07T18:57:57.526Z,20.8
2022-12-07T19:02:52.443Z,20.8
2022-12-07T19:07:47.198Z,20.8
2022-12-07T19:12:41.776Z,20.9
2022-12-07T19:17:36.554Z,20.7
2022-12-07T19:22:31.330Z,20.7
2022-12-07T19:27:25.908Z,20.6
2022-12-07T19:32:22.791Z,20.5
2022-12-07T19:37:17.220Z,20.5
2022-12-07T19:42:12.057Z,20.3
2022-12-07T19:47:05.781Z,20.1
2022-12-07T19:51:59.617Z,20.1
2022-12-07T19:56:54.168Z,20
2022-12-07T20:01:49.325Z,19.9
2022-12-07T20:06:43.911Z,19.7
2022-12-07T20:11:38.628Z,19.6
2022-12-07T20:16:33.413Z,19.5
2022-12-07T20:21:27.995Z,19.6
2022-12-07T20:26:25.214Z,19.5
2022-12-07T20:31:17.319Z,19.3
2022-12-07T20:36:12.083Z,19.2
2022-12-07T20:41:07.016Z,19.1
2022-12-07T20:46:02.044Z,19
2022-12-07T20:50:56.766Z,19
2022-12-07T20:55:51.642Z,18.8
2022-12-07T21:00:45.747Z,18.8
2022-12-07T21:05:40.232Z,18.7
2022-12-07T21:10:34.761Z,18.7
2022-12-07T21:15:29.506Z,18.6
2022-12-07T21:20:24.108Z,18.5
2022-12-07T21:25:19.003Z,18.4
2022-12-07T21:30:13.911Z,18.4
2022-12-07T21:35:07.791Z,18.3
2022-12-07T21:40:02.447Z,18.2
2022-12-07T21:44:57.152Z,18.1
2022-12-07T21:49:51.836Z,18.1
2022-12-07T21:54:46.497Z,17.9
2022-12-07T21:59:41.171Z,17.9
2022-12-07T22:04:35.786Z,17.8
2022-12-07T22:09:29.911Z,17.7
2022-12-07T22:14:24.756Z,17.7
2022-12-07T22:19:19.565Z,17.6
2022-12-07T22:24:14.498Z,17.6
2022-12-07T22:29:09.427Z,17.6
2022-12-07T22:34:04.133Z,17.4
2022-12-07T22:38:58.813Z,17.4
2022-12-07T22:43:53.684Z,17.4
2022-12-07T22:48:47.667Z,17.3
2022-12-07T22:53:41.696Z,17.2
2022-12-07T22:58:36.430Z,17.2
2022-12-07T23:03:31.190Z,17.2
2022-12-07T23:08:26.207Z,17.2
2022-12-07T23:13:20.781Z,17.1
2022-12-07T23:18:15.347Z,17.2
2022-12-07T23:23:10.019Z,17.1
2022-12-07T23:28:04.787Z,17.1
2022-12-07T23:32:59.408Z,17.1
2022-12-07T23:37:53.252Z,17
2022-12-07T23:42:48.153Z,17
2022-12-07T23:47:42.159Z,16.9
2022-12-07T23:52:36.808Z,17
2022-12-07T23:57:31.657Z,16.9
